createdAt,value
2018-08-23T00:04:20.759Z,67.98
2018-08-23T00:12:41.802Z,68.26
2018-08-23T00:21:02.857Z,67.95
2018-08-23T00:29:23.878Z,68.64
2018-08-23T00:37:44.950Z,67.81
2018-08-23T00:46:05.999Z,70.20
2018-08-23T00:54:27.011Z,69.05
2018-08-23T01:02:48.054Z,70.30
2018-08-23T01:11:09.087Z,71.52
2018-08-23T01:19:31.211Z,70.53
2018-08-23T01:27:52.232Z,70.71
2018-08-23T01:36:13.255Z,71.85
2018-08-23T01:44:34.319Z,70.04
2018-08-23T01:52:55.326Z,71.33
2018-08-23T02:01:17.453Z,72.20
2018-08-23T02:09:38.586Z,71.43
2018-08-23T02:17:59.870Z,73.02
2018-08-23T02:26:20.897Z,72.42
2018-08-23T02:34:41.930Z,72.79
2018-08-23T02:43:03.078Z,72.30
2018-08-23T02:51:26.148Z,72.32
2018-08-23T02:59:47.443Z,72.43
2018-08-23T03:08:08.482Z,74.17
2018-08-23T03:16:29.493Z,73.08
2018-08-23T03:24:50.534Z,72.83
2018-08-23T03:33:11.541Z,72.74
2018-08-23T03:41:32.543Z,73.26
2018-08-23T03:55:08.668Z,73.77
2018-08-23T04:03:29.667Z,73.16
2018-08-23T04:11:50.763Z,74.11
2018-08-23T04:20:11.884Z,73.55
2018-08-23T04:28:33.990Z,72.66
2018-08-23T04:36:55.031Z,73.07
2018-08-23T04:45:16.300Z,73.82
2018-08-23T04:53:37.652Z,73.67
2018-08-23T05:01:58.763Z,75.31
2018-08-23T05:10:19.801Z,74.32
2018-08-23T05:18:40.979Z,73.79
2018-08-23T05:27:02.106Z,73.86
2018-08-23T05:40:21.087Z,73.84
2018-08-23T05:48:42.107Z,73.53
2018-08-23T05:57:03.226Z,73.67
2018-08-23T06:05:24.251Z,73.91
2018-08-23T06:13:45.274Z,73.44
2018-08-23T06:22:06.297Z,72.51
2018-08-23T06:30:28.427Z,72.88
2018-08-23T06:38:51.586Z,72.60
2018-08-23T06:47:12.667Z,69.97
2018-08-23T06:55:33.694Z,70.31
2018-08-23T07:03:54.692Z,67.94
2018-08-23T07:12:15.828Z,66.87
2018-08-23T07:20:37.028Z,66.95
2018-08-23T07:28:58.063Z,65.10
2018-08-23T07:37:19.422Z,64.19
2018-08-23T07:45:40.435Z,62.29
2018-08-23T07:54:01.482Z,61.65
2018-08-23T08:02:22.504Z,61.31
2018-08-23T08:10:43.635Z,60.15
2018-08-23T08:19:04.671Z,58.60
2018-08-23T08:27:25.716Z,57.49
2018-08-23T08:35:46.759Z,56.30
2018-08-23T08:44:07.787Z,54.44
2018-08-23T08:52:28.800Z,54.90
2018-08-23T09:00:51.874Z,52.26
2018-08-23T09:09:12.997Z,51.03
2018-08-23T09:17:34.062Z,50.74
2018-08-23T09:25:55.170Z,50.65
2018-08-23T09:34:16.213Z,50.94
2018-08-23T09:42:37.275Z,49.05
2018-08-23T09:50:58.346Z,46.71
2018-08-23T09:59:20.471Z,47.19
2018-08-23T10:07:41.499Z,47.52
2018-08-23T10:16:02.517Z,45.48
2018-08-23T10:24:23.536Z,43.27
2018-08-23T10:33:09.272Z,43.18
2018-08-23T10:41:30.291Z,44.07
2018-08-23T10:49:51.314Z,44.23
2018-08-23T10:58:12.355Z,43.56
2018-08-23T11:06:35.496Z,41.19
2018-08-23T11:14:56.508Z,40.68
2018-08-23T11:23:17.551Z,41.13
2018-08-23T11:31:38.602Z,39.84
2018-08-23T11:39:59.608Z,38.06
2018-08-23T11:48:20.635Z,35.56
2018-08-23T11:56:42.790Z,34.25
2018-08-23T12:05:03.814Z,33.77
2018-08-23T12:13:24.838Z,33.56
2018-08-23T12:21:46.183Z,31.06
2018-08-23T12:30:07.255Z,28.78
2018-08-23T12:38:28.299Z,31.01
2018-08-23T12:46:49.338Z,30.13
2018-08-23T13:03:29.676Z,28.08
2018-08-23T13:11:50.678Z,25.41
2018-08-23T13:20:11.692Z,25.03
2018-08-23T13:28:32.689Z,24.75
2018-08-23T13:36:53.787Z,23.36
2018-08-23T13:45:14.795Z,21.60
2018-08-23T13:53:35.882Z,23.49
2018-08-23T14:01:56.896Z,22.36
2018-08-23T14:10:17.951Z,22.45
2018-08-23T14:18:39.123Z,22.20
2018-08-23T14:27:00.168Z,23.59
2018-08-23T14:35:21.192Z,23.67
2018-08-23T14:43:42.244Z,22.76
2018-08-23T14:52:03.368Z,21.83
2018-08-23T15:00:24.514Z,21.56
2018-08-23T15:08:45.620Z,21.01
2018-08-23T15:17:06.666Z,19.26
2018-08-23T15:25:27.667Z,19.50
2018-08-23T15:33:48.731Z,20.68
2018-08-23T15:42:09.783Z,19.86
2018-08-23T15:50:30.785Z,21.20
2018-08-23T15:58:51.812Z,21.79
2018-08-23T16:07:12.963Z,22.41
2018-08-23T16:15:33.987Z,24.32
2018-08-23T16:23:55.000Z,27.97
2018-08-23T16:32:16.009Z,30.69
2018-08-23T16:40:38.110Z,33.54
2018-08-23T16:48:59.225Z,35.63
2018-08-23T16:57:20.251Z,37.86
2018-08-23T17:05:41.286Z,38.81
2018-08-23T17:14:02.307Z,38.25
2018-08-23T17:22:24.322Z,39.28
2018-08-23T17:30:45.410Z,40.64
2018-08-23T17:39:06.451Z,41.58
2018-08-23T17:47:27.830Z,43.50
2018-08-23T17:55:49.008Z,44.73
2018-08-23T18:04:09.979Z,45.89
2018-08-23T18:12:31.022Z,47.99
2018-08-23T18:20:52.069Z,48.63
2018-08-23T18:29:13.357Z,47.97
2018-08-23T18:37:35.604Z,49.00
2018-08-23T18:45:56.578Z,50.46
2018-08-23T18:54:17.685Z,49.96
2018-08-23T19:02:39.105Z,50.77
2018-08-23T19:11:00.160Z,50.23
2018-08-23T19:19:21.223Z,50.47
2018-08-23T19:27:42.252Z,52.53
2018-08-23T19:36:03.282Z,53.36
2018-08-23T19:44:24.305Z,52.79
2018-08-23T19:52:45.405Z,53.08
2018-08-23T20:01:07.473Z,54.45
2018-08-23T20:09:30.567Z,53.36
2018-08-23T20:17:51.910Z,54.60
2018-08-23T20:26:12.936Z,53.44
2018-08-23T20:34:33.984Z,54.86
2018-08-23T20:42:55.008Z,55.39
2018-08-23T20:51:16.035Z,55.19
2018-08-23T20:59:37.146Z,55.22
2018-08-23T21:07:58.186Z,56.30
2018-08-23T21:16:19.512Z,56.44
2018-08-23T21:24:40.504Z,56.20
2018-08-23T21:33:01.528Z,56.22
2018-08-23T21:41:22.541Z,56.89
2018-08-23T21:49:44.639Z,55.92
2018-08-23T21:58:05.686Z,56.87
2018-08-23T22:06:26.711Z,56.81
2018-08-23T22:14:47.755Z,56.81
2018-08-23T22:23:08.752Z,56.64
2018-08-23T22:31:29.863Z,58.30
2018-08-23T22:39:51.908Z,57.03
2018-08-23T22:48:12.931Z,57.40
2018-08-23T22:56:34.304Z,55.92
2018-08-23T23:04:55.398Z,57.02
2018-08-23T23:13:16.438Z,58.03
2018-08-23T23:21:37.582Z,56.26
2018-08-23T23:29:58.716Z,57.20
2018-08-23T23:38:19.753Z,56.49
2018-08-23T23:46:41.084Z,57.25
2018-08-23T23:55:03.179Z,59.26
